sensor_id;sensor_type;location;lat;lon;timestamp;temperature;humidity
997;DHT22;487;50.126;8.698;2023-03-01T00:01:38;1.10;99.90
997;DHT22;487;50.126;8.698;2023-03-01T00:04:06;1.10;99.90
997;DHT22;487;50.126;8.698;2023-03-01T00:06:36;1.10;99.90
997;DHT22;487;50.126;8.698;2023-03-01T00:09:04;1.10;99.90
997;DHT22;487;50.126;8.698;2023-03-01T00:11:33;1.10;99.90
997;DHT22;487;50.126;8.698;2023-03-01T00:14:02;1.10;99.90
997;DHT22;487;50.126;8.698;2023-03-01T00:16:35;1.10;99.90
997;DHT22;487;50.126;8.698;2023-03-01T00:19:06;1.10;99.90
997;DHT22;487;50.126;8.698;2023-03-01T00:21:34;1.10;99.90
997;DHT22;487;50.126;8.698;2023-03-01T00:24:04;1.10;99.90
997;DHT22;487;50.126;8.698;2023-03-01T00:26:32;1.10;99.90
997;DHT22;487;50.126;8.698;2023-03-01T00:29:00;1.00;99.90
997;DHT22;487;50.126;8.698;2023-03-01T00:31:30;1.00;99.90
997;DHT22;487;50.126;8.698;2023-03-01T00:34:00;1.00;99.90
997;DHT22;487;50.126;8.698;2023-03-01T00:36:29;1.00;99.90
997;DHT22;487;50.126;8.698;2023-03-01T00:38:58;1.00;99.90
997;DHT22;487;50.126;8.698;2023-03-01T00:41:27;1.00;99.90
997;DHT22;487;50.126;8.698;2023-03-01T00:43:55;1.00;99.90
997;DHT22;487;50.126;8.698;2023-03-01T00:46:25;1.10;99.90
997;DHT22;487;50.126;8.698;2023-03-01T00:48:54;1.00;99.90
997;DHT22;487;50.126;8.698;2023-03-01T00:51:24;1.00;99.90
997;DHT22;487;50.126;8.698;2023-03-01T00:53:53;1.10;99.90
997;DHT22;487;50.126;8.698;2023-03-01T00:56:21;1.10;99.90
997;DHT22;487;50.126;8.698;2023-03-01T00:58:51;1.00;99.90
997;DHT22;487;50.126;8.698;2023-03-01T05:02:26;0.40;99.90
997;DHT22;487;50.126;8.698;2023-03-01T05:07:33;0.20;99.90
997;DHT22;487;50.126;8.698;2023-03-01T05:10:00;0.20;99.90
997;DHT22;487;50.126;8.698;2023-03-01T05:12:28;0.20;99.90
997;DHT22;487;50.126;8.698;2023-03-01T05:14:56;0.20;99.90
997;DHT22;487;50.126;8.698;2023-03-01T05:17:25;0.10;99.90
997;DHT22;487;50.126;8.698;2023-03-01T05:22:22;0.20;99.90
997;DHT22;487;50.126;8.698;2023-03-01T05:29:48;0.10;99.90
997;DHT22;487;50.126;8.698;2023-03-01T05:32:16;0.10;99.90
997;DHT22;487;50.126;8.698;2023-03-01T05:34:44;0.10;99.90
997;DHT22;487;50.126;8.698;2023-03-01T05:37:14;0.00;99.90
997;DHT22;487;50.126;8.698;2023-03-01T05:39:42;0.10;99.90
997;DHT22;487;50.126;8.698;2023-03-01T05:42:10;0.00;99.90
997;DHT22;487;50.126;8.698;2023-03-01T05:47:07;-0.10;99.90
997;DHT22;487;50.126;8.698;2023-03-01T05:49:34;-0.10;99.90
997;DHT22;487;50.126;8.698;2023-03-01T05:52:05;0.00;99.90
997;DHT22;487;50.126;8.698;2023-03-01T05:54:35;0.00;99.90
997;DHT22;487;50.126;8.698;2023-03-01T05:57:02;0.00;99.90
997;DHT22;487;50.126;8.698;2023-03-01T06:01:58;0.10;99.90
997;DHT22;487;50.126;8.698;2023-03-01T06:11:53;0.10;99.90
997;DHT22;487;50.126;8.698;2023-03-01T06:14:21;0.10;99.90
997;DHT22;487;50.126;8.698;2023-03-01T06:16:49;0.10;99.90
997;DHT22;487;50.126;8.698;2023-03-01T06:24:13;2.10;99.90
997;DHT22;487;50.126;8.698;2023-03-01T06:26:41;0.10;99.90
997;DHT22;487;50.126;8.698;2023-03-01T06:29:10;0.20;99.90
997;DHT22;487;50.126;8.698;2023-03-01T06:34:06;0.20;99.90
997;DHT22;487;50.126;8.698;2023-03-01T06:36:34;0.20;99.90
997;DHT22;487;50.126;8.698;2023-03-01T06:39:02;0.30;99.90
997;DHT22;487;50.126;8.698;2023-03-01T06:41:31;0.30;99.90
997;DHT22;487;50.126;8.698;2023-03-01T06:46:30;0.30;99.90
997;DHT22;487;50.126;8.698;2023-03-01T06:48:59;0.30;99.90
997;DHT22;487;50.126;8.698;2023-03-01T06:51:26;0.30;99.90
997;DHT22;487;50.126;8.698;2023-03-01T06:53:54;0.40;99.90
997;DHT22;487;50.126;8.698;2023-03-01T06:56:22;0.40;99.90
997;DHT22;487;50.126;8.698;2023-03-01T06:58:50;0.50;99.90
997;DHT22;487;50.126;8.698;2023-03-01T07:01:18;0.50;99.90
997;DHT22;487;50.126;8.698;2023-03-01T07:06:15;0.50;99.90
997;DHT22;487;50.126;8.698;2023-03-01T07:08:44;0.60;99.90
997;DHT22;487;50.126;8.698;2023-03-01T07:11:12;0.50;99.90
997;DHT22;487;50.126;8.698;2023-03-01T07:16:09;0.60;99.90
997;DHT22;487;50.126;8.698;2023-03-01T07:18:37;0.60;99.90
997;DHT22;487;50.126;8.698;2023-03-01T07:21:07;0.60;99.90
997;DHT22;487;50.126;8.698;2023-03-01T07:23:35;0.60;99.90
997;DHT22;487;50.126;8.698;2023-03-01T07:28:32;0.60;99.90
997;DHT22;487;50.126;8.698;2023-03-01T07:31:03;0.50;99.90
997;DHT22;487;50.126;8.698;2023-03-01T07:36:00;0.50;99.90
997;DHT22;487;50.126;8.698;2023-03-01T07:38:30;0.50;99.90
997;DHT22;487;50.126;8.698;2023-03-01T07:40:59;0.50;99.90
997;DHT22;487;50.126;8.698;2023-03-01T07:45:58;0.50;99.90
997;DHT22;487;50.126;8.698;2023-03-01T07:48:26;0.50;99.90
997;DHT22;487;50.126;8.698;2023-03-01T07:50:54;0.40;99.90
997;DHT22;487;50.126;8.698;2023-03-01T07:53:25;0.50;99.90
997;DHT22;487;50.126;8.698;2023-03-01T07:56:02;0.50;99.90
997;DHT22;487;50.126;8.698;2023-03-01T07:58:30;0.60;99.90
997;DHT22;487;50.126;8.698;2023-03-01T08:01:01;0.60;99.90
997;DHT22;487;50.126;8.698;2023-03-01T08:05:59;0.80;99.90
997;DHT22;487;50.126;8.698;2023-03-01T08:08:27;0.90;99.90
997;DHT22;487;50.126;8.698;2023-03-01T08:10:56;0.90;99.90
997;DHT22;487;50.126;8.698;2023-03-01T08:13:26;1.00;99.90
997;DHT22;487;50.126;8.698;2023-03-01T08:20:51;1.10;99.90
997;DHT22;487;50.126;8.698;2023-03-01T08:23:18;1.20;99.90
997;DHT22;487;50.126;8.698;2023-03-01T08:25:47;1.20;99.90
997;DHT22;487;50.126;8.698;2023-03-01T08:28:14;1.30;99.90
997;DHT22;487;50.126;8.698;2023-03-01T08:30:44;1.40;99.90
997;DHT22;487;50.126;8.698;2023-03-01T08:33:11;1.30;99.90
997;DHT22;487;50.126;8.698;2023-03-01T08:40:36;1.50;99.90
997;DHT22;487;50.126;8.698;2023-03-01T08:43:03;1.50;99.90
997;DHT22;487;50.126;8.698;2023-03-01T08:45:31;1.60;99.90
997;DHT22;487;50.126;8.698;2023-03-01T08:48:01;1.80;99.90
997;DHT22;487;50.126;8.698;2023-03-01T08:50:28;1.90;99.90
997;DHT22;487;50.126;8.698;2023-03-01T08:52:56;1.90;99.90
997;DHT22;487;50.126;8.698;2023-03-01T08:55:24;2.00;99.90
997;DHT22;487;50.126;8.698;2023-03-01T08:57:52;2.10;99.90
997;DHT22;487;50.126;8.698;2023-03-01T09:00:21;2.10;99.90
997;DHT22;487;50.126;8.698;2023-03-01T09:02:49;2.20;99.90
997;DHT22;487;50.126;8.698;2023-03-01T09:05:18;2.20;99.90
997;DHT22;487;50.126;8.698;2023-03-01T09:07:46;2.10;99.90
997;DHT22;487;50.126;8.698;2023-03-01T09:12:42;2.20;99.90
997;DHT22;487;50.126;8.698;2023-03-01T09:15:10;2.40;99.90
997;DHT22;487;50.126;8.698;2023-03-01T09:17:38;2.50;99.90
997;DHT22;487;50.126;8.698;2023-03-01T09:20:06;2.60;99.90
997;DHT22;487;50.126;8.698;2023-03-01T09:22:36;2.70;99.90
997;DHT22;487;50.126;8.698;2023-03-01T09:25:04;2.70;99.90
997;DHT22;487;50.126;8.698;2023-03-01T09:27:32;2.80;99.90
997;DHT22;487;50.126;8.698;2023-03-01T09:30:00;2.80;99.90
997;DHT22;487;50.126;8.698;2023-03-01T09:32:30;2.80;99.90
997;DHT22;487;50.126;8.698;2023-03-01T09:34:58;2.80;99.90
997;DHT22;487;50.126;8.698;2023-03-01T09:37:31;3.10;99.90
997;DHT22;487;50.126;8.698;2023-03-01T09:40:01;3.10;99.90
997;DHT22;487;50.126;8.698;2023-03-01T09:42:32;3.10;99.90
997;DHT22;487;50.126;8.698;2023-03-01T09:45:03;3.20;99.90
997;DHT22;487;50.126;8.698;2023-03-01T09:47:33;3.30;99.90
997;DHT22;487;50.126;8.698;2023-03-01T09:50:05;3.30;99.90
997;DHT22;487;50.126;8.698;2023-03-01T09:52:40;3.30;99.90
997;DHT22;487;50.126;8.698;2023-03-01T09:55:13;3.30;99.90
997;DHT22;487;50.126;8.698;2023-03-01T09:57:46;3.50;99.90
997;DHT22;487;50.126;8.698;2023-03-01T10:00:30;3.50;99.90
997;DHT22;487;50.126;8.698;2023-03-01T10:03:07;3.50;99.90
997;DHT22;487;50.126;8.698;2023-03-01T10:05:44;3.60;99.90
997;DHT22;487;50.126;8.698;2023-03-01T10:08:31;3.50;99.90
997;DHT22;487;50.126;8.698;2023-03-01T10:11:05;3.60;99.90
997;DHT22;487;50.126;8.698;2023-03-01T10:13:46;3.60;99.90
997;DHT22;487;50.126;8.698;2023-03-01T10:16:18;3.60;99.90
997;DHT22;487;50.126;8.698;2023-03-01T10:18:53;3.80;99.90
997;DHT22;487;50.126;8.698;2023-03-01T10:21:22;3.90;99.90
997;DHT22;487;50.126;8.698;2023-03-01T10:23:52;4.00;99.90
997;DHT22;487;50.126;8.698;2023-03-01T10:26:40;4.00;99.90
997;DHT22;487;50.126;8.698;2023-03-01T10:29:11;4.00;99.90
997;DHT22;487;50.126;8.698;2023-03-01T10:31:42;4.10;99.90
997;DHT22;487;50.126;8.698;2023-03-01T10:34:14;4.20;99.90
997;DHT22;487;50.126;8.698;2023-03-01T10:36:43;4.20;99.90
997;DHT22;487;50.126;8.698;2023-03-01T10:39:14;4.20;99.90
997;DHT22;487;50.126;8.698;2023-03-01T10:41:55;4.20;99.90
997;DHT22;487;50.126;8.698;2023-03-01T10:44:43;4.30;99.90
997;DHT22;487;50.126;8.698;2023-03-01T10:47:18;4.50;99.90
997;DHT22;487;50.126;8.698;2023-03-01T10:49:58;4.50;99.90
997;DHT22;487;50.126;8.698;2023-03-01T10:52:33;4.60;99.90
997;DHT22;487;50.126;8.698;2023-03-01T10:55:04;4.70;99.90
997;DHT22;487;50.126;8.698;2023-03-01T10:57:37;4.80;99.90
997;DHT22;487;50.126;8.698;2023-03-01T11:00:20;4.90;99.90
997;DHT22;487;50.126;8.698;2023-03-01T11:02:51;4.90;99.90
997;DHT22;487;50.126;8.698;2023-03-01T11:05:23;5.00;99.90
997;DHT22;487;50.126;8.698;2023-03-01T11:07:53;5.00;99.90
997;DHT22;487;50.126;8.698;2023-03-01T11:10:23;5.10;99.90
997;DHT22;487;50.126;8.698;2023-03-01T11:12:53;5.10;99.90
997;DHT22;487;50.126;8.698;2023-03-01T11:15:32;5.20;99.90
997;DHT22;487;50.126;8.698;2023-03-01T11:20:39;5.30;99.90
997;DHT22;487;50.126;8.698;2023-03-01T11:23:10;5.30;99.90
997;DHT22;487;50.126;8.698;2023-03-01T11:25:42;5.40;99.90
997;DHT22;487;50.126;8.698;2023-03-01T11:28:14;5.50;99.90
997;DHT22;487;50.126;8.698;2023-03-01T11:30:48;5.60;99.90
997;DHT22;487;50.126;8.698;2023-03-01T11:33:39;5.80;99.90
997;DHT22;487;50.126;8.698;2023-03-01T11:36:15;5.90;99.90
997;DHT22;487;50.126;8.698;2023-03-01T11:38:43;6.00;99.90
997;DHT22;487;50.126;8.698;2023-03-01T11:41:15;6.00;99.90
997;DHT22;487;50.126;8.698;2023-03-01T11:43:50;6.10;99.90
997;DHT22;487;50.126;8.698;2023-03-01T11:49:44;6.10;99.90
997;DHT22;487;50.126;8.698;2023-03-01T11:52:20;6.20;99.90
997;DHT22;487;50.126;8.698;2023-03-01T11:55:02;6.40;99.90
997;DHT22;487;50.126;8.698;2023-03-01T11:57:46;6.50;99.90
997;DHT22;487;50.126;8.698;2023-03-01T12:00:41;6.50;99.90
997;DHT22;487;50.126;8.698;2023-03-01T12:03:32;6.50;99.90
997;DHT22;487;50.126;8.698;2023-03-01T12:09:13;6.60;99.90
997;DHT22;487;50.126;8.698;2023-03-01T12:12:00;6.70;99.90
997;DHT22;487;50.126;8.698;2023-03-01T12:14:39;6.70;99.90
997;DHT22;487;50.126;8.698;2023-03-01T12:17:32;6.90;99.90
997;DHT22;487;50.126;8.698;2023-03-01T12:20:18;6.90;99.90
997;DHT22;487;50.126;8.698;2023-03-01T12:23:02;7.00;99.90
997;DHT22;487;50.126;8.698;2023-03-01T12:25:49;7.00;99.90
997;DHT22;487;50.126;8.698;2023-03-01T12:28:25;7.10;99.90
997;DHT22;487;50.126;8.698;2023-03-01T12:31:25;7.10;99.90
997;DHT22;487;50.126;8.698;2023-03-01T12:34:06;7.10;99.90
997;DHT22;487;50.126;8.698;2023-03-01T12:36:52;7.10;99.90
997;DHT22;487;50.126;8.698;2023-03-01T12:39:32;7.10;99.90
997;DHT22;487;50.126;8.698;2023-03-01T12:42:06;7.20;99.90
997;DHT22;487;50.126;8.698;2023-03-01T12:45:24;7.30;99.90
997;DHT22;487;50.126;8.698;2023-03-01T12:48:07;7.40;99.90
997;DHT22;487;50.126;8.698;2023-03-01T12:50:41;7.40;99.90
997;DHT22;487;50.126;8.698;2023-03-01T12:53:22;7.40;99.90
997;DHT22;487;50.126;8.698;2023-03-01T12:55:50;7.30;99.90
997;DHT22;487;50.126;8.698;2023-03-01T12:58:25;7.40;99.90
997;DHT22;487;50.126;8.698;2023-03-01T13:01:17;7.60;99.90
997;DHT22;487;50.126;8.698;2023-03-01T13:04:01;7.60;99.90
997;DHT22;487;50.126;8.698;2023-03-01T13:06:37;7.60;99.90
997;DHT22;487;50.126;8.698;2023-03-01T13:09:14;7.70;99.90
997;DHT22;487;50.126;8.698;2023-03-01T13:11:45;7.70;99.90
997;DHT22;487;50.126;8.698;2023-03-01T13:14:35;7.80;99.90
997;DHT22;487;50.126;8.698;2023-03-01T13:17:03;7.70;99.90
997;DHT22;487;50.126;8.698;2023-03-01T13:19:32;7.80;99.90
997;DHT22;487;50.126;8.698;2023-03-01T13:22:26;7.80;99.90
997;DHT22;487;50.126;8.698;2023-03-01T13:25:02;7.80;99.90
997;DHT22;487;50.126;8.698;2023-03-01T13:27:30;7.80;99.90
997;DHT22;487;50.126;8.698;2023-03-01T13:30:00;7.80;99.90
997;DHT22;487;50.126;8.698;2023-03-01T13:32:32;7.80;99.90
997;DHT22;487;50.126;8.698;2023-03-01T13:35:40;7.90;99.90
997;DHT22;487;50.126;8.698;2023-03-01T13:38:38;7.90;99.90
997;DHT22;487;50.126;8.698;2023-03-01T13:41:07;7.90;99.90
997;DHT22;487;50.126;8.698;2023-03-01T13:43:36;9.10;99.90
997;DHT22;487;50.126;8.698;2023-03-01T13:46:10;7.80;99.90
997;DHT22;487;50.126;8.698;2023-03-01T13:48:40;7.80;99.90
997;DHT22;487;50.126;8.698;2023-03-01T13:51:10;7.90;99.90
997;DHT22;487;50.126;8.698;2023-03-01T13:53:42;7.90;99.90
997;DHT22;487;50.126;8.698;2023-03-01T13:56:13;7.90;99.90
997;DHT22;487;50.126;8.698;2023-03-01T13:58:47;7.80;99.90
997;DHT22;487;50.126;8.698;2023-03-01T14:01:23;7.80;99.90
997;DHT22;487;50.126;8.698;2023-03-01T14:03:51;7.80;99.90
997;DHT22;487;50.126;8.698;2023-03-01T14:06:22;7.80;99.90
997;DHT22;487;50.126;8.698;2023-03-01T14:09:01;7.80;99.90
997;DHT22;487;50.126;8.698;2023-03-01T14:12:00;7.80;99.90
997;DHT22;487;50.126;8.698;2023-03-01T14:14:44;7.80;99.90
997;DHT22;487;50.126;8.698;2023-03-01T14:17:53;7.80;99.90
997;DHT22;487;50.126;8.698;2023-03-01T14:20:25;7.80;99.90
997;DHT22;487;50.126;8.698;2023-03-01T14:22:56;7.90;99.90
997;DHT22;487;50.126;8.698;2023-03-01T14:25:28;8.00;99.90
997;DHT22;487;50.126;8.698;2023-03-01T14:28:00;8.20;99.90
997;DHT22;487;50.126;8.698;2023-03-01T14:30:34;8.10;99.90
997;DHT22;487;50.126;8.698;2023-03-01T14:33:05;8.10;99.90
997;DHT22;487;50.126;8.698;2023-03-01T14:35:35;8.10;99.90
997;DHT22;487;50.126;8.698;2023-03-01T14:38:03;8.20;99.90
997;DHT22;487;50.126;8.698;2023-03-01T14:40:34;8.10;99.90
997;DHT22;487;50.126;8.698;2023-03-01T14:43:09;8.10;99.90
997;DHT22;487;50.126;8.698;2023-03-01T14:45:37;8.10;99.90
997;DHT22;487;50.126;8.698;2023-03-01T14:48:07;8.00;99.90
997;DHT22;487;50.126;8.698;2023-03-01T14:50:40;8.10;99.90
997;DHT22;487;50.126;8.698;2023-03-01T14:53:16;8.20;99.90
997;DHT22;487;50.126;8.698;2023-03-01T14:55:48;8.20;99.90
997;DHT22;487;50.126;8.698;2023-03-01T14:58:20;8.40;99.90
997;DHT22;487;50.126;8.698;2023-03-01T15:00:50;8.40;99.90
997;DHT22;487;50.126;8.698;2023-03-01T15:03:25;8.50;99.90
997;DHT22;487;50.126;8.698;2023-03-01T15:05:53;8.50;99.90
997;DHT22;487;50.126;8.698;2023-03-01T15:08:23;8.40;99.90
997;DHT22;487;50.126;8.698;2023-03-01T15:11:02;8.30;99.90
997;DHT22;487;50.126;8.698;2023-03-01T15:13:35;8.30;99.90
997;DHT22;487;50.126;8.698;2023-03-01T15:16:06;8.30;99.90
997;DHT22;487;50.126;8.698;2023-03-01T15:18:35;8.30;99.90
997;DHT22;487;50.126;8.698;2023-03-01T15:21:08;8.30;99.90
997;DHT22;487;50.126;8.698;2023-03-01T15:23:38;8.40;99.90
997;DHT22;487;50.126;8.698;2023-03-01T15:26:22;8.50;99.90
997;DHT22;487;50.126;8.698;2023-03-01T15:28:52;8.60;99.90
997;DHT22;487;50.126;8.698;2023-03-01T15:31:26;8.60;99.90
997;DHT22;487;50.126;8.698;2023-03-01T15:34:09;8.60;99.90
997;DHT22;487;50.126;8.698;2023-03-01T15:36:41;8.50;99.90
997;DHT22;487;50.126;8.698;2023-03-01T15:39:30;8.50;99.90
997;DHT22;487;50.126;8.698;2023-03-01T15:42:01;8.50;99.90
997;DHT22;487;50.126;8.698;2023-03-01T15:44:31;8.60;99.90
997;DHT22;487;50.126;8.698;2023-03-01T15:47:25;8.60;99.90
997;DHT22;487;50.126;8.698;2023-03-01T15:49:55;8.60;99.90
997;DHT22;487;50.126;8.698;2023-03-01T15:52:26;8.60;99.90
997;DHT22;487;50.126;8.698;2023-03-01T15:54:58;8.70;99.90
997;DHT22;487;50.126;8.698;2023-03-01T15:57:28;8.80;99.90
997;DHT22;487;50.126;8.698;2023-03-01T15:59:56;8.80;99.90
997;DHT22;487;50.126;8.698;2023-03-01T16:02:24;8.80;99.90
997;DHT22;487;50.126;8.698;2023-03-01T16:04:52;9.00;99.90
997;DHT22;487;50.126;8.698;2023-03-01T16:07:22;9.50;99.90
997;DHT22;487;50.126;8.698;2023-03-01T16:09:50;9.50;99.90
997;DHT22;487;50.126;8.698;2023-03-01T16:12:18;9.90;99.90
997;DHT22;487;50.126;8.698;2023-03-01T16:14:49;10.40;99.90
997;DHT22;487;50.126;8.698;2023-03-01T16:17:17;11.50;99.90
997;DHT22;487;50.126;8.698;2023-03-01T16:19:44;11.50;99.90
997;DHT22;487;50.126;8.698;2023-03-01T16:22:12;11.70;99.90
997;DHT22;487;50.126;8.698;2023-03-01T16:24:40;11.30;99.90
997;DHT22;487;50.126;8.698;2023-03-01T16:27:08;10.50;99.90
997;DHT22;487;50.126;8.698;2023-03-01T16:29:36;10.50;99.90
997;DHT22;487;50.126;8.698;2023-03-01T16:32:06;10.30;99.90
997;DHT22;487;50.126;8.698;2023-03-01T16:34:34;10.10;99.90
997;DHT22;487;50.126;8.698;2023-03-01T16:37:01;10.00;99.90
997;DHT22;487;50.126;8.698;2023-03-01T16:39:29;10.00;99.90
997;DHT22;487;50.126;8.698;2023-03-01T16:41:59;10.00;99.90
997;DHT22;487;50.126;8.698;2023-03-01T16:44:28;9.90;99.90
997;DHT22;487;50.126;8.698;2023-03-01T16:46:56;9.60;99.90
997;DHT22;487;50.126;8.698;2023-03-01T16:49:26;9.30;99.90
997;DHT22;487;50.126;8.698;2023-03-01T16:51:54;9.00;99.90
997;DHT22;487;50.126;8.698;2023-03-01T16:54:22;9.00;99.90
997;DHT22;487;50.126;8.698;2023-03-01T16:56:50;8.90;99.90
997;DHT22;487;50.126;8.698;2023-03-01T16:59:17;8.60;99.90
997;DHT22;487;50.126;8.698;2023-03-01T17:01:45;8.30;99.90
997;DHT22;487;50.126;8.698;2023-03-01T17:04:14;8.20;99.90
997;DHT22;487;50.126;8.698;2023-03-01T17:06:43;8.00;99.90
997;DHT22;487;50.126;8.698;2023-03-01T17:09:13;7.70;99.90
997;DHT22;487;50.126;8.698;2023-03-01T17:11:40;7.50;99.90
997;DHT22;487;50.126;8.698;2023-03-01T17:14:09;7.40;99.90
997;DHT22;487;50.126;8.698;2023-03-01T17:16:37;7.20;99.90
997;DHT22;487;50.126;8.698;2023-03-01T17:19:05;7.10;99.90
997;DHT22;487;50.126;8.698;2023-03-01T17:21:33;7.10;99.90
997;DHT22;487;50.126;8.698;2023-03-01T17:24:03;7.00;99.90
997;DHT22;487;50.126;8.698;2023-03-01T17:26:31;6.90;99.90
997;DHT22;487;50.126;8.698;2023-03-01T17:28:58;6.80;99.90
997;DHT22;487;50.126;8.698;2023-03-01T17:31:26;5.30;99.90
997;DHT22;487;50.126;8.698;2023-03-01T17:33:54;6.70;99.90
997;DHT22;487;50.126;8.698;2023-03-01T17:36:26;6.60;99.90
997;DHT22;487;50.126;8.698;2023-03-01T17:38:54;6.60;99.90
997;DHT22;487;50.126;8.698;2023-03-01T17:41:23;6.50;99.90
997;DHT22;487;50.126;8.698;2023-03-01T17:43:51;6.50;99.90
997;DHT22;487;50.126;8.698;2023-03-01T17:46:19;6.40;99.90
997;DHT22;487;50.126;8.698;2023-03-01T17:48:47;6.30;99.90
997;DHT22;487;50.126;8.698;2023-03-01T17:51:15;6.30;99.90
997;DHT22;487;50.126;8.698;2023-03-01T17:53:43;6.20;99.90
997;DHT22;487;50.126;8.698;2023-03-01T17:56:11;6.20;99.90
997;DHT22;487;50.126;8.698;2023-03-01T17:58:40;6.10;99.90
997;DHT22;487;50.126;8.698;2023-03-01T18:01:09;6.10;99.90
997;DHT22;487;50.126;8.698;2023-03-01T18:03:38;6.10;99.90
997;DHT22;487;50.126;8.698;2023-03-01T18:06:13;6.00;99.90
997;DHT22;487;50.126;8.698;2023-03-01T18:08:42;5.90;99.90
997;DHT22;487;50.126;8.698;2023-03-01T18:11:12;5.90;99.90
997;DHT22;487;50.126;8.698;2023-03-01T18:13:41;5.80;99.90
997;DHT22;487;50.126;8.698;2023-03-01T18:16:10;5.70;99.90
997;DHT22;487;50.126;8.698;2023-03-01T18:18:39;5.70;99.90
997;DHT22;487;50.126;8.698;2023-03-01T18:21:08;5.60;99.90
997;DHT22;487;50.126;8.698;2023-03-01T18:23:36;5.50;99.90
997;DHT22;487;50.126;8.698;2023-03-01T18:26:06;5.50;99.90
997;DHT22;487;50.126;8.698;2023-03-01T18:31:06;5.40;99.90
997;DHT22;487;50.126;8.698;2023-03-01T18:33:37;5.40;99.90
997;DHT22;487;50.126;8.698;2023-03-01T18:36:12;5.30;99.90
997;DHT22;487;50.126;8.698;2023-03-01T18:38:42;5.30;99.90
997;DHT22;487;50.126;8.698;2023-03-01T18:41:10;5.30;99.90
997;DHT22;487;50.126;8.698;2023-03-01T18:43:38;5.20;99.90
997;DHT22;487;50.126;8.698;2023-03-01T18:46:07;5.20;99.90
997;DHT22;487;50.126;8.698;2023-03-01T18:48:35;5.10;99.90
997;DHT22;487;50.126;8.698;2023-03-01T18:51:08;5.10;99.90
997;DHT22;487;50.126;8.698;2023-03-01T18:53:36;5.00;99.90
997;DHT22;487;50.126;8.698;2023-03-01T18:56:05;5.00;99.90
997;DHT22;487;50.126;8.698;2023-03-01T18:58:33;4.90;99.90
997;DHT22;487;50.126;8.698;2023-03-01T19:01:01;4.80;99.90
997;DHT22;487;50.126;8.698;2023-03-01T19:03:31;4.80;99.90
997;DHT22;487;50.126;8.698;2023-03-01T19:05:59;4.80;99.90
997;DHT22;487;50.126;8.698;2023-03-01T19:08:27;4.80;99.90
997;DHT22;487;50.126;8.698;2023-03-01T19:10:57;4.80;99.90
997;DHT22;487;50.126;8.698;2023-03-01T19:13:25;4.80;99.90
997;DHT22;487;50.126;8.698;2023-03-01T19:16:02;4.70;99.90
997;DHT22;487;50.126;8.698;2023-03-01T19:18:31;4.70;99.90
997;DHT22;487;50.126;8.698;2023-03-01T19:21:00;4.70;99.90
997;DHT22;487;50.126;8.698;2023-03-01T19:23:31;4.70;99.90
997;DHT22;487;50.126;8.698;2023-03-01T19:26:01;4.70;99.90
997;DHT22;487;50.126;8.698;2023-03-01T19:28:29;4.70;99.90
997;DHT22;487;50.126;8.698;2023-03-01T19:30:57;4.60;99.90
997;DHT22;487;50.126;8.698;2023-03-01T19:33:27;4.60;99.90
997;DHT22;487;50.126;8.698;2023-03-01T19:35:56;4.60;99.90
997;DHT22;487;50.126;8.698;2023-03-01T19:38:25;4.60;99.90
997;DHT22;487;50.126;8.698;2023-03-01T19:40:53;4.60;99.90
997;DHT22;487;50.126;8.698;2023-03-01T19:43:21;4.60;99.90
997;DHT22;487;50.126;8.698;2023-03-01T19:45:50;4.60;99.90
997;DHT22;487;50.126;8.698;2023-03-01T19:48:18;4.50;99.90
997;DHT22;487;50.126;8.698;2023-03-01T19:50:46;4.40;99.90
997;DHT22;487;50.126;8.698;2023-03-01T19:53:16;4.40;99.90
997;DHT22;487;50.126;8.698;2023-03-01T19:55:44;4.40;99.90
997;DHT22;487;50.126;8.698;2023-03-01T19:58:12;4.40;99.90
997;DHT22;487;50.126;8.698;2023-03-01T20:00:44;4.40;99.90
997;DHT22;487;50.126;8.698;2023-03-01T20:03:12;4.40;99.90
997;DHT22;487;50.126;8.698;2023-03-01T20:05:40;4.30;99.90
997;DHT22;487;50.126;8.698;2023-03-01T20:08:09;4.30;99.90
997;DHT22;487;50.126;8.698;2023-03-01T20:10:38;4.30;99.90
997;DHT22;487;50.126;8.698;2023-03-01T20:13:06;4.30;99.90
997;DHT22;487;50.126;8.698;2023-03-01T20:15:33;4.30;99.90
997;DHT22;487;50.126;8.698;2023-03-01T20:18:03;4.30;99.90
997;DHT22;487;50.126;8.698;2023-03-01T20:20:30;4.30;99.90
997;DHT22;487;50.126;8.698;2023-03-01T20:22:58;4.20;99.90
997;DHT22;487;50.126;8.698;2023-03-01T20:25:26;4.20;99.90
997;DHT22;487;50.126;8.698;2023-03-01T20:27:55;4.20;99.90
997;DHT22;487;50.126;8.698;2023-03-01T20:30:23;4.10;99.90
997;DHT22;487;50.126;8.698;2023-03-01T20:32:52;4.10;99.90
997;DHT22;487;50.126;8.698;2023-03-01T20:35:20;4.10;99.90
997;DHT22;487;50.126;8.698;2023-03-01T20:37:50;4.00;99.90
997;DHT22;487;50.126;8.698;2023-03-01T20:42:52;3.90;99.90
997;DHT22;487;50.126;8.698;2023-03-01T20:45:22;3.90;99.90
997;DHT22;487;50.126;8.698;2023-03-01T20:47:53;3.80;99.90
997;DHT22;487;50.126;8.698;2023-03-01T20:50:21;3.80;99.90
997;DHT22;487;50.126;8.698;2023-03-01T20:52:49;3.80;99.90
997;DHT22;487;50.126;8.698;2023-03-01T20:55:17;3.70;99.90
997;DHT22;487;50.126;8.698;2023-03-01T21:00:14;3.70;99.90
997;DHT22;487;50.126;8.698;2023-03-01T21:02:44;3.70;99.90
997;DHT22;487;50.126;8.698;2023-03-01T21:05:12;3.70;99.90
997;DHT22;487;50.126;8.698;2023-03-01T21:07:40;3.60;99.90
997;DHT22;487;50.126;8.698;2023-03-01T21:10:09;3.60;99.90
997;DHT22;487;50.126;8.698;2023-03-01T21:12:37;3.50;99.90
997;DHT22;487;50.126;8.698;2023-03-01T21:15:06;3.50;99.90
997;DHT22;487;50.126;8.698;2023-03-01T21:17:37;3.40;99.90
997;DHT22;487;50.126;8.698;2023-03-01T21:20:07;3.40;99.90
997;DHT22;487;50.126;8.698;2023-03-01T21:22:35;3.40;99.90
997;DHT22;487;50.126;8.698;2023-03-01T21:25:04;3.40;99.90
997;DHT22;487;50.126;8.698;2023-03-01T21:27:35;3.40;99.90
997;DHT22;487;50.126;8.698;2023-03-01T21:30:04;3.50;99.90
997;DHT22;487;50.126;8.698;2023-03-01T21:32:32;3.50;99.90
997;DHT22;487;50.126;8.698;2023-03-01T21:35:00;3.40;99.90
997;DHT22;487;50.126;8.698;2023-03-01T21:37:29;3.40;99.90
997;DHT22;487;50.126;8.698;2023-03-01T21:39:57;3.40;99.90
997;DHT22;487;50.126;8.698;2023-03-01T21:42:25;3.40;99.90
997;DHT22;487;50.126;8.698;2023-03-01T21:44:52;3.40;99.90
997;DHT22;487;50.126;8.698;2023-03-01T21:47:20;3.40;99.90
997;DHT22;487;50.126;8.698;2023-03-01T21:49:48;3.40;99.90
997;DHT22;487;50.126;8.698;2023-03-01T21:52:16;3.40;99.90
997;DHT22;487;50.126;8.698;2023-03-01T21:54:49;3.30;99.90
997;DHT22;487;50.126;8.698;2023-03-01T21:57:16;3.30;99.90
997;DHT22;487;50.126;8.698;2023-03-01T21:59:44;3.30;99.90
997;DHT22;487;50.126;8.698;2023-03-01T22:02:12;3.30;99.90
997;DHT22;487;50.126;8.698;2023-03-01T22:07:09;3.20;99.90
997;DHT22;487;50.126;8.698;2023-03-01T22:09:37;3.20;99.90
997;DHT22;487;50.126;8.698;2023-03-01T22:12:06;3.20;99.90
997;DHT22;487;50.126;8.698;2023-03-01T22:17:02;3.10;99.90
997;DHT22;487;50.126;8.698;2023-03-01T22:19:30;3.10;99.90
997;DHT22;487;50.126;8.698;2023-03-01T22:21:58;3.10;99.90
997;DHT22;487;50.126;8.698;2023-03-01T22:24:26;3.10;99.90
997;DHT22;487;50.126;8.698;2023-03-01T22:26:54;3.10;99.90
997;DHT22;487;50.126;8.698;2023-03-01T22:29:27;3.10;99.90
997;DHT22;487;50.126;8.698;2023-03-01T22:31:56;3.10;99.90
997;DHT22;487;50.126;8.698;2023-03-01T22:34:25;3.10;99.90
997;DHT22;487;50.126;8.698;2023-03-01T22:36:53;3.00;99.90
997;DHT22;487;50.126;8.698;2023-03-01T22:39:22;3.00;99.90
997;DHT22;487;50.126;8.698;2023-03-01T22:41:49;2.90;99.90